KERI/ERI METAR and TAF weather

Enter ICAO airport designator
Station Type Date Time Source
KERI METAR 2021/05/15 22:51 UTC NOAA

KERI 152251Z 32004KT 10SM CLR 21/M03 A3022 RMK AO2 SLP235 T02061033


Station Type Date Time Source
KERI Decoded METAR 2021/05/15 22:51 UTC NOAA

ERIE INTERNATIONAL AIRPORT, PA, United States (KERI) 42-05N 080-11W 222M
May 15, 2021 - 06:51 PM EDT / 2021.05.15 2251 UTC
Wind: from the NW (320 degrees) at 5 MPH (4 KT):0
Visibility: 10 mile(s):0
Sky conditions: clear
Temperature: 69.1 F (20.6 C)
Dew Point: 26.1 F (-3.3 C)
Relative Humidity: 19%
Pressure (altimeter): 30.22 in. Hg (1023 hPa)
ob: KERI 152251Z 32004KT 10SM CLR 21/M03 A3022 RMK AO2 SLP235 T02061033
cycle: 23

Station Type Date Time Source
KERI TAF 2021/05/15 18:27 UTC NOAA

TAF KERI 151724Z 1518/1618 32008KT P6SM FEW060 BKN200
FM160100 15004KT P6SM SCT080 BKN120
FM161500 33004KT P6SM FEW060 SCT120

Example: see airport list